sensor_id;sensor_type;location;lat;lon;timestamp;temperature;humidity
16801;DHT22;8518;53.236;10.384;2024-01-30T00:00:18;6.30;99.90
16801;DHT22;8518;53.236;10.384;2024-01-30T00:02:44;4.70;99.90
16801;DHT22;8518;53.236;10.384;2024-01-30T00:05:11;5.40;99.90
16801;DHT22;8518;53.236;10.384;2024-01-30T00:07:39;4.40;99.90
16801;DHT22;8518;53.236;10.384;2024-01-30T00:10:08;4.70;99.90
16801;DHT22;8518;53.236;10.384;2024-01-30T00:12:36;4.70;99.90
16801;DHT22;8518;53.236;10.384;2024-01-30T00:15:02;4.70;99.90
16801;DHT22;8518;53.236;10.384;2024-01-30T00:17:30;4.70;99.90
16801;DHT22;8518;53.236;10.384;2024-01-30T00:23:18;4.70;99.90
16801;DHT22;8518;53.236;10.384;2024-01-30T00:25:47;4.70;99.90
16801;DHT22;8518;53.236;10.384;2024-01-30T00:28:13;4.60;99.90
16801;DHT22;8518;53.236;10.384;2024-01-30T00:30:38;4.60;99.90
16801;DHT22;8518;53.236;10.384;2024-01-30T00:33:07;5.50;99.90
16801;DHT22;8518;53.236;10.384;2024-01-30T00:35:33;4.50;99.90
16801;DHT22;8518;53.236;10.384;2024-01-30T00:37:59;4.50;99.90
16801;DHT22;8518;53.236;10.384;2024-01-30T00:40:24;5.30;99.90
16801;DHT22;8518;53.236;10.384;2024-01-30T00:42:50;4.40;99.90
16801;DHT22;8518;53.236;10.384;2024-01-30T00:45:16;4.40;99.90
16801;DHT22;8518;53.236;10.384;2024-01-30T00:47:42;4.10;99.90
16801;DHT22;8518;53.236;10.384;2024-01-30T00:53:30;4.40;99.90
16801;DHT22;8518;53.236;10.384;2024-01-30T00:55:58;4.40;99.90
16801;DHT22;8518;53.236;10.384;2024-01-30T01:01:46;4.40;99.90
16801;DHT22;8518;53.236;10.384;2024-01-30T01:04:23;4.30;99.90
16801;DHT22;8518;53.236;10.384;2024-01-30T01:06:49;4.30;99.90
16801;DHT22;8518;53.236;10.384;2024-01-30T01:09:18;4.10;99.90
16801;DHT22;8518;53.236;10.384;2024-01-30T01:11:43;4.20;99.90
16801;DHT22;8518;53.236;10.384;2024-01-30T01:14:09;4.10;99.90
16801;DHT22;8518;53.236;10.384;2024-01-30T01:16:34;4.20;99.90
16801;DHT22;8518;53.236;10.384;2024-01-30T01:22:22;4.30;99.90
16801;DHT22;8518;53.236;10.384;2024-01-30T01:24:48;4.30;99.90
16801;DHT22;8518;53.236;10.384;2024-01-30T01:27:16;4.30;99.90
16801;DHT22;8518;53.236;10.384;2024-01-30T01:33:04;4.30;99.90
16801;DHT22;8518;53.236;10.384;2024-01-30T01:35:32;4.40;99.90
16801;DHT22;8518;53.236;10.384;2024-01-30T01:37:58;4.40;99.90
16801;DHT22;8518;53.236;10.384;2024-01-30T01:40:29;4.30;99.90
16801;DHT22;8518;53.236;10.384;2024-01-30T01:42:55;6.00;99.90
16801;DHT22;8518;53.236;10.384;2024-01-30T01:45:21;4.40;99.90
16801;DHT22;8518;53.236;10.384;2024-01-30T01:47:51;4.30;99.90
16801;DHT22;8518;53.236;10.384;2024-01-30T01:53:39;4.30;99.90
16801;DHT22;8518;53.236;10.384;2024-01-30T01:59:27;4.30;99.90
16801;DHT22;8518;53.236;10.384;2024-01-30T02:01:55;4.30;99.90
16801;DHT22;8518;53.236;10.384;2024-01-30T02:04:22;4.30;99.90
16801;DHT22;8518;53.236;10.384;2024-01-30T02:06:47;4.30;99.90
16801;DHT22;8518;53.236;10.384;2024-01-30T02:09:16;4.30;99.90
16801;DHT22;8518;53.236;10.384;2024-01-30T02:11:42;4.20;99.90
16801;DHT22;8518;53.236;10.384;2024-01-30T02:14:11;4.30;99.90
16801;DHT22;8518;53.236;10.384;2024-01-30T02:16:37;4.30;99.90
16801;DHT22;8518;53.236;10.384;2024-01-30T02:22:26;4.40;99.90
16801;DHT22;8518;53.236;10.384;2024-01-30T02:24:53;4.40;99.90
16801;DHT22;8518;53.236;10.384;2024-01-30T02:27:19;4.50;99.90
16801;DHT22;8518;53.236;10.384;2024-01-30T02:33:08;4.60;99.90
16801;DHT22;8518;53.236;10.384;2024-01-30T02:35:37;4.60;99.90
16801;DHT22;8518;53.236;10.384;2024-01-30T02:38:02;4.60;99.90
16801;DHT22;8518;53.236;10.384;2024-01-30T02:40:28;4.60;99.90
16801;DHT22;8518;53.236;10.384;2024-01-30T02:42:58;5.20;99.90
16801;DHT22;8518;53.236;10.384;2024-01-30T02:45:27;4.70;99.90
16801;DHT22;8518;53.236;10.384;2024-01-30T02:47:52;5.10;99.90
16801;DHT22;8518;53.236;10.384;2024-01-30T02:50:18;4.60;99.90
16801;DHT22;8518;53.236;10.384;2024-01-30T02:52:43;4.80;99.90
16801;DHT22;8518;53.236;10.384;2024-01-30T02:55:15;4.80;99.90
16801;DHT22;8518;53.236;10.384;2024-01-30T02:57:43;4.80;99.90
16801;DHT22;8518;53.236;10.384;2024-01-30T03:03:31;4.90;99.90
16801;DHT22;8518;53.236;10.384;2024-01-30T03:05:56;5.00;99.90
16801;DHT22;8518;53.236;10.384;2024-01-30T03:08:22;5.00;99.90
16801;DHT22;8518;53.236;10.384;2024-01-30T03:10:47;5.00;99.90
16801;DHT22;8518;53.236;10.384;2024-01-30T03:13:13;5.00;99.90
16801;DHT22;8518;53.236;10.384;2024-01-30T03:15:38;5.00;99.90
16801;DHT22;8518;53.236;10.384;2024-01-30T03:18:07;5.00;99.90
16801;DHT22;8518;53.236;10.384;2024-01-30T03:20:32;5.00;99.90
16801;DHT22;8518;53.236;10.384;2024-01-30T03:23:00;5.60;99.90
16801;DHT22;8518;53.236;10.384;2024-01-30T03:25:25;4.90;99.90
16801;DHT22;8518;53.236;10.384;2024-01-30T03:27:51;4.70;99.90
16801;DHT22;8518;53.236;10.384;2024-01-30T03:30:17;4.90;99.90
16801;DHT22;8518;53.236;10.384;2024-01-30T03:32:43;4.70;99.90
16801;DHT22;8518;53.236;10.384;2024-01-30T03:35:10;4.90;99.90
16801;DHT22;8518;53.236;10.384;2024-01-30T03:37:35;4.80;99.90
16801;DHT22;8518;53.236;10.384;2024-01-30T03:43:23;4.90;99.90
16801;DHT22;8518;53.236;10.384;2024-01-30T03:45:48;5.10;99.90
16801;DHT22;8518;53.236;10.384;2024-01-30T03:48:15;4.80;99.90
16801;DHT22;8518;53.236;10.384;2024-01-30T03:50:41;4.60;99.90
16801;DHT22;8518;53.236;10.384;2024-01-30T03:53:06;5.00;99.90
16801;DHT22;8518;53.236;10.384;2024-01-30T03:55:32;4.80;99.90
16801;DHT22;8518;53.236;10.384;2024-01-30T03:57:57;4.80;99.90
16801;DHT22;8518;53.236;10.384;2024-01-30T04:00:23;4.70;99.90
16801;DHT22;8518;53.236;10.384;2024-01-30T04:02:48;6.30;99.90
16801;DHT22;8518;53.236;10.384;2024-01-30T04:05:16;4.60;99.90
16801;DHT22;8518;53.236;10.384;2024-01-30T04:07:45;4.50;99.90
16801;DHT22;8518;53.236;10.384;2024-01-30T04:10:13;3.90;99.90
16801;DHT22;8518;53.236;10.384;2024-01-30T04:12:39;4.20;99.90
16801;DHT22;8518;53.236;10.384;2024-01-30T04:15:05;4.40;99.90
16801;DHT22;8518;53.236;10.384;2024-01-30T04:17:33;4.70;99.90
16801;DHT22;8518;53.236;10.384;2024-01-30T04:23:21;4.70;99.90
16801;DHT22;8518;53.236;10.384;2024-01-30T04:25:49;4.70;99.90
16801;DHT22;8518;53.236;10.384;2024-01-30T04:28:18;4.60;99.90
16801;DHT22;8518;53.236;10.384;2024-01-30T04:30:43;4.60;99.90
16801;DHT22;8518;53.236;10.384;2024-01-30T04:33:10;4.50;99.90
16801;DHT22;8518;53.236;10.384;2024-01-30T04:35:38;4.50;99.90
16801;DHT22;8518;53.236;10.384;2024-01-30T04:38:04;4.50;99.90
16801;DHT22;8518;53.236;10.384;2024-01-30T04:40:33;4.40;99.90
16801;DHT22;8518;53.236;10.384;2024-01-30T04:43:01;4.40;99.90
16801;DHT22;8518;53.236;10.384;2024-01-30T04:45:27;4.40;99.90
16801;DHT22;8518;53.236;10.384;2024-01-30T04:47:52;4.40;99.90
16801;DHT22;8518;53.236;10.384;2024-01-30T04:50:21;4.40;99.90
16801;DHT22;8518;53.236;10.384;2024-01-30T04:52:46;4.50;99.90
16801;DHT22;8518;53.236;10.384;2024-01-30T04:55:12;4.30;99.90
16801;DHT22;8518;53.236;10.384;2024-01-30T04:57:37;4.30;99.90
16801;DHT22;8518;53.236;10.384;2024-01-30T05:03:33;4.40;99.90
16801;DHT22;8518;53.236;10.384;2024-01-30T05:06:00;4.30;99.90
16801;DHT22;8518;53.236;10.384;2024-01-30T05:08:25;4.30;99.90
16801;DHT22;8518;53.236;10.384;2024-01-30T05:10:51;4.20;99.90
16801;DHT22;8518;53.236;10.384;2024-01-30T05:13:16;4.00;99.90
16801;DHT22;8518;53.236;10.384;2024-01-30T05:15:42;4.20;99.90
16801;DHT22;8518;53.236;10.384;2024-01-30T05:18:07;6.10;99.90
16801;DHT22;8518;53.236;10.384;2024-01-30T05:20:36;4.30;99.90
16801;DHT22;8518;53.236;10.384;2024-01-30T05:23:01;4.40;99.90
16801;DHT22;8518;53.236;10.384;2024-01-30T05:25:30;5.70;99.90
16801;DHT22;8518;53.236;10.384;2024-01-30T05:27:55;4.20;99.90
16801;DHT22;8518;53.236;10.384;2024-01-30T05:30:21;4.40;99.90
16801;DHT22;8518;53.236;10.384;2024-01-30T05:32:46;4.40;99.90
16801;DHT22;8518;53.236;10.384;2024-01-30T05:35:12;4.30;99.90
16801;DHT22;8518;53.236;10.384;2024-01-30T05:37:38;4.30;99.90
16801;DHT22;8518;53.236;10.384;2024-01-30T05:43:25;4.40;99.90
16801;DHT22;8518;53.236;10.384;2024-01-30T05:45:52;4.30;99.90
16801;DHT22;8518;53.236;10.384;2024-01-30T05:48:18;4.00;99.90
16801;DHT22;8518;53.236;10.384;2024-01-30T05:50:43;4.00;99.90
16801;DHT22;8518;53.236;10.384;2024-01-30T05:53:10;4.20;99.90
16801;DHT22;8518;53.236;10.384;2024-01-30T05:55:36;4.10;99.90
16801;DHT22;8518;53.236;10.384;2024-01-30T05:58:01;4.20;99.90
16801;DHT22;8518;53.236;10.384;2024-01-30T06:00:27;4.20;99.90
16801;DHT22;8518;53.236;10.384;2024-01-30T06:02:52;3.80;99.90
16801;DHT22;8518;53.236;10.384;2024-01-30T06:05:18;3.90;99.90
16801;DHT22;8518;53.236;10.384;2024-01-30T06:07:43;4.60;99.90
16801;DHT22;8518;53.236;10.384;2024-01-30T06:10:09;4.20;99.90
16801;DHT22;8518;53.236;10.384;2024-01-30T06:12:35;5.90;99.90
16801;DHT22;8518;53.236;10.384;2024-01-30T06:15:01;4.00;99.90
16801;DHT22;8518;53.236;10.384;2024-01-30T06:17:27;5.50;99.90
16801;DHT22;8518;53.236;10.384;2024-01-30T06:23:14;4.00;99.90
16801;DHT22;8518;53.236;10.384;2024-01-30T06:25:40;3.90;99.90
16801;DHT22;8518;53.236;10.384;2024-01-30T06:28:06;3.90;99.90
16801;DHT22;8518;53.236;10.384;2024-01-30T06:30:31;3.60;99.90
16801;DHT22;8518;53.236;10.384;2024-01-30T06:32:57;5.30;99.90
16801;DHT22;8518;53.236;10.384;2024-01-30T06:35:22;3.40;99.90
16801;DHT22;8518;53.236;10.384;2024-01-30T06:37:48;4.50;99.90
16801;DHT22;8518;53.236;10.384;2024-01-30T06:43:36;3.90;99.90
16801;DHT22;8518;53.236;10.384;2024-01-30T06:46:01;3.90;99.90
16801;DHT22;8518;53.236;10.384;2024-01-30T06:51:49;4.00;99.90
16801;DHT22;8518;53.236;10.384;2024-01-30T06:57:36;4.10;99.90
16801;DHT22;8518;53.236;10.384;2024-01-30T07:03:24;4.20;99.90
16801;DHT22;8518;53.236;10.384;2024-01-30T07:09:12;4.20;99.90
16801;DHT22;8518;53.236;10.384;2024-01-30T07:11:39;4.20;99.90
16801;DHT22;8518;53.236;10.384;2024-01-30T07:14:05;4.20;99.90
16801;DHT22;8518;53.236;10.384;2024-01-30T07:16:30;4.20;99.90
16801;DHT22;8518;53.236;10.384;2024-01-30T07:22:18;4.20;99.90
16801;DHT22;8518;53.236;10.384;2024-01-30T07:24:43;4.30;99.90
16801;DHT22;8518;53.236;10.384;2024-01-30T07:27:14;4.40;99.90
16801;DHT22;8518;53.236;10.384;2024-01-30T07:33:02;4.50;99.90
16801;DHT22;8518;53.236;10.384;2024-01-30T07:35:30;4.60;99.90
16801;DHT22;8518;53.236;10.384;2024-01-30T07:37:58;4.40;99.90
16801;DHT22;8518;53.236;10.384;2024-01-30T07:40:24;4.70;99.90
16801;DHT22;8518;53.236;10.384;2024-01-30T07:42:49;4.90;99.90
16801;DHT22;8518;53.236;10.384;2024-01-30T07:45:15;4.50;99.90
16801;DHT22;8518;53.236;10.384;2024-01-30T07:47:41;4.90;99.90
16801;DHT22;8518;53.236;10.384;2024-01-30T07:53:29;5.40;99.90
16801;DHT22;8518;53.236;10.384;2024-01-30T07:55:55;5.30;99.90
16801;DHT22;8518;53.236;10.384;2024-01-30T07:58:23;5.40;99.90
16801;DHT22;8518;53.236;10.384;2024-01-30T08:00:49;5.50;99.90
16801;DHT22;8518;53.236;10.384;2024-01-30T08:03:14;6.30;99.90
16801;DHT22;8518;53.236;10.384;2024-01-30T08:05:44;5.80;99.90
16801;DHT22;8518;53.236;10.384;2024-01-30T08:08:10;6.10;99.90
16801;DHT22;8518;53.236;10.384;2024-01-30T08:10:36;6.10;99.90
16801;DHT22;8518;53.236;10.384;2024-01-30T08:13:02;6.30;99.90
16801;DHT22;8518;53.236;10.384;2024-01-30T08:15:27;6.70;99.90
16801;DHT22;8518;53.236;10.384;2024-01-30T08:17:53;6.40;99.90
16801;DHT22;8518;53.236;10.384;2024-01-30T08:20:26;7.80;99.90
16801;DHT22;8518;53.236;10.384;2024-01-30T08:22:52;6.80;99.90
16801;DHT22;8518;53.236;10.384;2024-01-30T08:25:17;6.80;99.90
16801;DHT22;8518;53.236;10.384;2024-01-30T08:27:49;6.80;99.90
16801;DHT22;8518;53.236;10.384;2024-01-30T08:33:40;6.80;99.90
16801;DHT22;8518;53.236;10.384;2024-01-30T08:36:08;6.70;99.90
16801;DHT22;8518;53.236;10.384;2024-01-30T08:41:59;6.70;99.90
16801;DHT22;8518;53.236;10.384;2024-01-30T08:44:27;6.70;99.90
16801;DHT22;8518;53.236;10.384;2024-01-30T08:46:53;6.70;99.90
16801;DHT22;8518;53.236;10.384;2024-01-30T08:52:40;6.80;99.90
16801;DHT22;8518;53.236;10.384;2024-01-30T08:55:06;6.90;99.90
16801;DHT22;8518;53.236;10.384;2024-01-30T08:57:32;6.90;99.90
16801;DHT22;8518;53.236;10.384;2024-01-30T09:03:20;7.10;99.90
16801;DHT22;8518;53.236;10.384;2024-01-30T09:05:49;7.20;99.90
16801;DHT22;8518;53.236;10.384;2024-01-30T09:08:14;7.20;99.90
16801;DHT22;8518;53.236;10.384;2024-01-30T09:10:40;7.30;99.90
16801;DHT22;8518;53.236;10.384;2024-01-30T09:13:18;7.40;99.90
16801;DHT22;8518;53.236;10.384;2024-01-30T09:15:43;7.60;99.90
16801;DHT22;8518;53.236;10.384;2024-01-30T09:18:09;7.60;99.90
16801;DHT22;8518;53.236;10.384;2024-01-30T09:20:35;8.90;99.90
16801;DHT22;8518;53.236;10.384;2024-01-30T09:23:00;8.00;99.90
16801;DHT22;8518;53.236;10.384;2024-01-30T09:25:26;8.40;99.90
16801;DHT22;8518;53.236;10.384;2024-01-30T09:27:51;10.10;99.90
16801;DHT22;8518;53.236;10.384;2024-01-30T09:33:39;9.10;99.90
16801;DHT22;8518;53.236;10.384;2024-01-30T09:36:08;9.30;99.90
16801;DHT22;8518;53.236;10.384;2024-01-30T09:42:33;9.50;99.90
16801;DHT22;8518;53.236;10.384;2024-01-30T09:45:02;9.60;99.90
16801;DHT22;8518;53.236;10.384;2024-01-30T09:47:41;9.50;99.90
16801;DHT22;8518;53.236;10.384;2024-01-30T09:53:31;9.30;99.90
16801;DHT22;8518;53.236;10.384;2024-01-30T09:55:57;9.20;99.90
16801;DHT22;8518;53.236;10.384;2024-01-30T10:01:45;9.10;99.90
16801;DHT22;8518;53.236;10.384;2024-01-30T10:04:11;8.70;99.90
16801;DHT22;8518;53.236;10.384;2024-01-30T10:06:37;9.10;99.90
16801;DHT22;8518;53.236;10.384;2024-01-30T10:09:06;9.20;99.90
16801;DHT22;8518;53.236;10.384;2024-01-30T10:11:31;9.30;99.90
16801;DHT22;8518;53.236;10.384;2024-01-30T10:13:57;9.40;99.90
16801;DHT22;8518;53.236;10.384;2024-01-30T10:16:22;9.50;99.90
16801;DHT22;8518;53.236;10.384;2024-01-30T10:22:10;9.90;99.90
16801;DHT22;8518;53.236;10.384;2024-01-30T10:24:36;10.10;99.90
16801;DHT22;8518;53.236;10.384;2024-01-30T10:27:02;10.30;99.90
16801;DHT22;8518;53.236;10.384;2024-01-30T10:32:50;11.10;99.90
16801;DHT22;8518;53.236;10.384;2024-01-30T10:35:17;11.60;99.90
16801;DHT22;8518;53.236;10.384;2024-01-30T10:37:52;11.90;99.90
16801;DHT22;8518;53.236;10.384;2024-01-30T10:40:23;12.00;99.90
16801;DHT22;8518;53.236;10.384;2024-01-30T10:42:53;12.10;99.90
16801;DHT22;8518;53.236;10.384;2024-01-30T10:45:22;12.10;99.90
16801;DHT22;8518;53.236;10.384;2024-01-30T10:47:53;12.70;99.90
16801;DHT22;8518;53.236;10.384;2024-01-30T10:50:20;12.20;99.90
16801;DHT22;8518;53.236;10.384;2024-01-30T10:52:46;12.20;99.90
16801;DHT22;8518;53.236;10.384;2024-01-30T10:55:12;12.20;99.90
16801;DHT22;8518;53.236;10.384;2024-01-30T10:57:39;12.50;99.90
16801;DHT22;8518;53.236;10.384;2024-01-30T11:03:27;12.70;99.90
16801;DHT22;8518;53.236;10.384;2024-01-30T11:05:54;13.00;99.90
16801;DHT22;8518;53.236;10.384;2024-01-30T11:08:24;13.00;99.90
16801;DHT22;8518;53.236;10.384;2024-01-30T11:10:55;12.90;99.90
16801;DHT22;8518;53.236;10.384;2024-01-30T11:13:21;12.90;99.90
16801;DHT22;8518;53.236;10.384;2024-01-30T11:15:48;12.90;99.90
16801;DHT22;8518;53.236;10.384;2024-01-30T11:18:25;12.50;99.90
16801;DHT22;8518;53.236;10.384;2024-01-30T11:20:51;12.40;99.90
16801;DHT22;8518;53.236;10.384;2024-01-30T11:23:16;13.40;99.90
16801;DHT22;8518;53.236;10.384;2024-01-30T11:25:43;12.30;99.90
16801;DHT22;8518;53.236;10.384;2024-01-30T11:28:14;12.20;99.90
16801;DHT22;8518;53.236;10.384;2024-01-30T11:30:41;12.30;99.90
16801;DHT22;8518;53.236;10.384;2024-01-30T11:33:11;12.40;99.90
16801;DHT22;8518;53.236;10.384;2024-01-30T11:35:39;12.30;99.90
16801;DHT22;8518;53.236;10.384;2024-01-30T11:38:06;12.20;99.90
16801;DHT22;8518;53.236;10.384;2024-01-30T11:40:32;12.10;99.90
16801;DHT22;8518;53.236;10.384;2024-01-30T11:43:00;12.10;99.90
16801;DHT22;8518;53.236;10.384;2024-01-30T11:45:26;12.10;99.90
16801;DHT22;8518;53.236;10.384;2024-01-30T11:47:52;12.00;99.90
16801;DHT22;8518;53.236;10.384;2024-01-30T11:50:18;12.30;99.90
16801;DHT22;8518;53.236;10.384;2024-01-30T11:52:44;12.30;99.90
16801;DHT22;8518;53.236;10.384;2024-01-30T11:55:10;12.20;99.90
16801;DHT22;8518;53.236;10.384;2024-01-30T11:57:36;12.20;99.90
16801;DHT22;8518;53.236;10.384;2024-01-30T12:03:24;12.10;99.90
16801;DHT22;8518;53.236;10.384;2024-01-30T12:05:57;12.00;99.90
16801;DHT22;8518;53.236;10.384;2024-01-30T12:08:23;12.00;99.90
16801;DHT22;8518;53.236;10.384;2024-01-30T12:10:56;11.90;99.90
16801;DHT22;8518;53.236;10.384;2024-01-30T12:13:22;12.00;99.90
16801;DHT22;8518;53.236;10.384;2024-01-30T12:15:48;13.10;99.90
16801;DHT22;8518;53.236;10.384;2024-01-30T12:18:18;11.50;99.90
16801;DHT22;8518;53.236;10.384;2024-01-30T12:20:43;11.50;99.90
16801;DHT22;8518;53.236;10.384;2024-01-30T12:23:09;12.80;99.90
16801;DHT22;8518;53.236;10.384;2024-01-30T12:25:37;12.00;99.90
16801;DHT22;8518;53.236;10.384;2024-01-30T12:28:02;11.40;99.90
16801;DHT22;8518;53.236;10.384;2024-01-30T12:30:28;11.50;99.90
16801;DHT22;8518;53.236;10.384;2024-01-30T12:32:54;11.60;99.90
16801;DHT22;8518;53.236;10.384;2024-01-30T12:35:20;11.60;99.90
16801;DHT22;8518;53.236;10.384;2024-01-30T12:37:47;11.90;99.90
16801;DHT22;8518;53.236;10.384;2024-01-30T12:43:35;11.30;99.90
16801;DHT22;8518;53.236;10.384;2024-01-30T12:49:22;11.30;99.90
16801;DHT22;8518;53.236;10.384;2024-01-30T12:51:48;11.40;99.90
16801;DHT22;8518;53.236;10.384;2024-01-30T12:54:14;11.20;99.90
16801;DHT22;8518;53.236;10.384;2024-01-30T12:56:39;11.40;99.90
16801;DHT22;8518;53.236;10.384;2024-01-30T13:02:28;11.40;99.90
16801;DHT22;8518;53.236;10.384;2024-01-30T13:08:22;11.20;99.90
16801;DHT22;8518;53.236;10.384;2024-01-30T13:10:47;11.20;99.90
16801;DHT22;8518;53.236;10.384;2024-01-30T13:13:13;11.00;99.90
16801;DHT22;8518;53.236;10.384;2024-01-30T13:15:38;11.50;99.90
16801;DHT22;8518;53.236;10.384;2024-01-30T13:18:04;12.10;99.90
16801;DHT22;8518;53.236;10.384;2024-01-30T13:20:30;11.00;99.90
16801;DHT22;8518;53.236;10.384;2024-01-30T13:22:56;11.00;99.90
16801;DHT22;8518;53.236;10.384;2024-01-30T13:25:21;11.00;99.90
16801;DHT22;8518;53.236;10.384;2024-01-30T13:27:48;10.60;99.90
16801;DHT22;8518;53.236;10.384;2024-01-30T13:33:36;10.90;99.90
16801;DHT22;8518;53.236;10.384;2024-01-30T13:36:01;10.90;99.90
16801;DHT22;8518;53.236;10.384;2024-01-30T13:41:49;10.90;99.90
16801;DHT22;8518;53.236;10.384;2024-01-30T13:44:15;11.60;99.90
16801;DHT22;8518;53.236;10.384;2024-01-30T13:46:42;10.70;99.90
16801;DHT22;8518;53.236;10.384;2024-01-30T13:52:37;10.90;99.90
16801;DHT22;8518;53.236;10.384;2024-01-30T13:55:03;10.70;99.90
16801;DHT22;8518;53.236;10.384;2024-01-30T13:57:29;11.00;99.90
16801;DHT22;8518;53.236;10.384;2024-01-30T14:03:20;11.10;99.90
16801;DHT22;8518;53.236;10.384;2024-01-30T14:05:46;10.80;99.90
16801;DHT22;8518;53.236;10.384;2024-01-30T14:08:11;11.00;99.90
16801;DHT22;8518;53.236;10.384;2024-01-30T14:10:37;10.90;99.90
16801;DHT22;8518;53.236;10.384;2024-01-30T14:13:02;10.90;99.90
16801;DHT22;8518;53.236;10.384;2024-01-30T14:15:28;10.90;99.90
16801;DHT22;8518;53.236;10.384;2024-01-30T14:17:54;10.80;99.90
16801;DHT22;8518;53.236;10.384;2024-01-30T14:20:19;10.80;99.90
16801;DHT22;8518;53.236;10.384;2024-01-30T14:22:45;10.80;99.90
16801;DHT22;8518;53.236;10.384;2024-01-30T14:25:10;10.60;99.90
16801;DHT22;8518;53.236;10.384;2024-01-30T14:27:37;10.90;99.90
16801;DHT22;8518;53.236;10.384;2024-01-30T14:33:25;11.00;99.90
16801;DHT22;8518;53.236;10.384;2024-01-30T14:35:51;11.00;99.90
16801;DHT22;8518;53.236;10.384;2024-01-30T14:38:16;11.10;99.90
16801;DHT22;8518;53.236;10.384;2024-01-30T14:40:42;10.80;99.90
16801;DHT22;8518;53.236;10.384;2024-01-30T14:43:08;11.10;99.90
16801;DHT22;8518;53.236;10.384;2024-01-30T14:45:33;11.10;99.90
16801;DHT22;8518;53.236;10.384;2024-01-30T14:47:59;11.20;99.90
16801;DHT22;8518;53.236;10.384;2024-01-30T14:50:25;12.20;99.90
16801;DHT22;8518;53.236;10.384;2024-01-30T14:52:52;12.60;99.90
16801;DHT22;8518;53.236;10.384;2024-01-30T14:55:18;11.20;99.90
16801;DHT22;8518;53.236;10.384;2024-01-30T14:57:44;10.90;99.90
16801;DHT22;8518;53.236;10.384;2024-01-30T15:03:33;11.20;99.90
16801;DHT22;8518;53.236;10.384;2024-01-30T15:06:00;11.30;99.90
16801;DHT22;8518;53.236;10.384;2024-01-30T15:08:26;11.00;99.90
16801;DHT22;8518;53.236;10.384;2024-01-30T15:10:51;11.20;99.90
16801;DHT22;8518;53.236;10.384;2024-01-30T15:13:17;12.70;99.90
16801;DHT22;8518;53.236;10.384;2024-01-30T15:15:42;11.10;99.90
16801;DHT22;8518;53.236;10.384;2024-01-30T15:18:08;11.00;99.90
16801;DHT22;8518;53.236;10.384;2024-01-30T15:20:36;11.00;99.90
16801;DHT22;8518;53.236;10.384;2024-01-30T15:23:02;11.80;99.90
16801;DHT22;8518;53.236;10.384;2024-01-30T15:25:28;10.60;99.90
16801;DHT22;8518;53.236;10.384;2024-01-30T15:27:54;11.00;99.90
16801;DHT22;8518;53.236;10.384;2024-01-30T15:30:20;11.00;99.90
16801;DHT22;8518;53.236;10.384;2024-01-30T15:32:45;10.70;99.90
16801;DHT22;8518;53.236;10.384;2024-01-30T15:35:11;10.60;99.90
16801;DHT22;8518;53.236;10.384;2024-01-30T15:37:36;11.70;99.90
16801;DHT22;8518;53.236;10.384;2024-01-30T15:43:24;10.90;99.90
16801;DHT22;8518;53.236;10.384;2024-01-30T15:45:50;11.30;99.90
16801;DHT22;8518;53.236;10.384;2024-01-30T15:48:17;10.90;99.90
16801;DHT22;8518;53.236;10.384;2024-01-30T15:50:43;10.70;99.90
16801;DHT22;8518;53.236;10.384;2024-01-30T15:53:08;10.90;99.90
16801;DHT22;8518;53.236;10.384;2024-01-30T15:55:34;12.80;99.90
16801;DHT22;8518;53.236;10.384;2024-01-30T15:57:59;10.60;99.90
16801;DHT22;8518;53.236;10.384;2024-01-30T16:00:25;10.60;99.90
16801;DHT22;8518;53.236;10.384;2024-01-30T16:02:52;10.90;99.90
16801;DHT22;8518;53.236;10.384;2024-01-30T16:05:17;10.60;99.90
16801;DHT22;8518;53.236;10.384;2024-01-30T16:07:43;10.80;99.90
16801;DHT22;8518;53.236;10.384;2024-01-30T16:10:11;10.40;99.90
16801;DHT22;8518;53.236;10.384;2024-01-30T16:12:44;10.80;99.90
16801;DHT22;8518;53.236;10.384;2024-01-30T16:15:13;10.80;99.90
16801;DHT22;8518;53.236;10.384;2024-01-30T16:17:39;10.80;99.90
16801;DHT22;8518;53.236;10.384;2024-01-30T16:23:26;10.80;99.90
16801;DHT22;8518;53.236;10.384;2024-01-30T16:25:53;10.70;99.90
16801;DHT22;8518;53.236;10.384;2024-01-30T16:28:19;10.50;99.90
16801;DHT22;8518;53.236;10.384;2024-01-30T16:30:44;10.30;99.90
16801;DHT22;8518;53.236;10.384;2024-01-30T16:33:11;10.50;99.90
16801;DHT22;8518;53.236;10.384;2024-01-30T16:35:36;10.40;99.90
16801;DHT22;8518;53.236;10.384;2024-01-30T16:38:03;10.50;99.90
16801;DHT22;8518;53.236;10.384;2024-01-30T16:40:28;10.50;99.90
16801;DHT22;8518;53.236;10.384;2024-01-30T16:42:54;10.50;99.90
16801;DHT22;8518;53.236;10.384;2024-01-30T16:45:21;10.30;99.90
16801;DHT22;8518;53.236;10.384;2024-01-30T16:47:46;10.70;99.90
16801;DHT22;8518;53.236;10.384;2024-01-30T16:53:34;10.40;99.90
16801;DHT22;8518;53.236;10.384;2024-01-30T16:56:01;10.40;99.90
16801;DHT22;8518;53.236;10.384;2024-01-30T17:01:49;10.50;99.90
16801;DHT22;8518;53.236;10.384;2024-01-30T17:04:18;10.50;99.90
16801;DHT22;8518;53.236;10.384;2024-01-30T17:06:46;10.50;99.90
16801;DHT22;8518;53.236;10.384;2024-01-30T17:09:12;10.50;99.90
16801;DHT22;8518;53.236;10.384;2024-01-30T17:11:40;10.50;99.90
16801;DHT22;8518;53.236;10.384;2024-01-30T17:14:06;10.50;99.90
16801;DHT22;8518;53.236;10.384;2024-01-30T17:16:31;10.60;99.90
16801;DHT22;8518;53.236;10.384;2024-01-30T17:22:19;10.60;99.90
16801;DHT22;8518;53.236;10.384;2024-01-30T17:28:07;10.60;99.90
16801;DHT22;8518;53.236;10.384;2024-01-30T17:30:35;10.60;99.90
16801;DHT22;8518;53.236;10.384;2024-01-30T17:33:02;10.60;99.90
16801;DHT22;8518;53.236;10.384;2024-01-30T17:35:28;10.70;99.90
16801;DHT22;8518;53.236;10.384;2024-01-30T17:37:53;10.60;99.90
16801;DHT22;8518;53.236;10.384;2024-01-30T17:40:19;10.60;99.90
16801;DHT22;8518;53.236;10.384;2024-01-30T17:42:44;10.70;99.90
16801;DHT22;8518;53.236;10.384;2024-01-30T17:45:10;10.60;99.90
16801;DHT22;8518;53.236;10.384;2024-01-30T17:47:35;10.70;99.90
16801;DHT22;8518;53.236;10.384;2024-01-30T17:53:26;10.20;99.90
16801;DHT22;8518;53.236;10.384;2024-01-30T17:55:52;10.60;99.90
16801;DHT22;8518;53.236;10.384;2024-01-30T17:58:19;10.60;99.90
16801;DHT22;8518;53.236;10.384;2024-01-30T18:00:48;10.60;99.90
16801;DHT22;8518;53.236;10.384;2024-01-30T18:03:14;10.60;99.90
16801;DHT22;8518;53.236;10.384;2024-01-30T18:05:39;10.60;99.90
16801;DHT22;8518;53.236;10.384;2024-01-30T18:08:07;10.40;99.90
16801;DHT22;8518;53.236;10.384;2024-01-30T18:10:36;12.10;99.90
16801;DHT22;8518;53.236;10.384;2024-01-30T18:13:02;10.70;99.90
16801;DHT22;8518;53.236;10.384;2024-01-30T18:15:29;12.10;99.90
16801;DHT22;8518;53.236;10.384;2024-01-30T18:17:58;10.50;99.90
16801;DHT22;8518;53.236;10.384;2024-01-30T18:20:26;10.70;99.90
16801;DHT22;8518;53.236;10.384;2024-01-30T18:22:54;10.70;99.90
16801;DHT22;8518;53.236;10.384;2024-01-30T18:25:19;10.80;99.90
16801;DHT22;8518;53.236;10.384;2024-01-30T18:27:45;10.80;99.90
16801;DHT22;8518;53.236;10.384;2024-01-30T18:33:33;10.80;99.90